Terminal Aerodrome Forecast
Issued by NWS Charleston, WV

Current Version | Previous Version | Text Only | Print | Product List | Glossary Off
Versions: 1 2 3 4 5 6 7 8 9 10 11 12 13 14 15 16 17 18 19 20 21 22 23 24

000
FTUS41 KRLX 231700
TAFPKB
TAF
KPKB 231739Z 2318/2418 25008KT P6SM SCT040
     FM232000 31007KT 4SM TSRA BR BKN030CB
     FM232300 35006KT 4SM TSRA BR OVC020CB
     FM240200 36006KT P6SM VCTS OVC020CB
     FM240300 01006KT P6SM OVC020
     FM240800 01005KT P6SM BKN025
     FM241100 35006KT P6SM BKN035=

USA.gov is the U.S. government's official web portal to all federal, state and local government web resources and services.